• Join FlightAware (Why Join?)
  • Login
  • US Flag 
04:56PM EDT


 

Airport Tracker/Info


-or-


 

Live Flight TrackerFlight Track Log ✈ FLG4208 ✈ 23-Apr-2013 ✈ KDTW - KAZO

Flight Track Log - Related Links

Times and Time Zones

All times are in EDT time to prevent confusion due to time zone crossing. See the FLG4208 flight status page for this flight to view local times or setup timezone preferences in your user account.

Time Position Orientation Groundspeed Altitude Reporting Facility
EDT Latitude Longitude Course Direction KTS MPH feet Rate Location/Type
10:36AM 42.2103 -83.3503 275° West 145 167 1,400  Level FAA TRACON SMA TRACON (SMA)
10:36AM 42.2075 -83.3658 256° West 158 182 2,400 2,820 Climbing FAA TRACON SMA TRACON (SMA)
10:37AM 42.2103 -83.3908 279° West 183 211 3,300 2,220 Climbing FAA TRACON SMA TRACON (SMA)
10:37AM 42.2122 -83.4128 277° West 211 243 3,900 1,200 Climbing FAA TRACON SMA TRACON (SMA)
10:37AM 42.2144 -83.4431 276° West 240 276 4,100 300 Climbing FAA TRACON SMA TRACON (SMA)
10:38AM 42.2178 -83.4753 278° West 252 290 4,100 -180 Level FAA TRACON SMA TRACON (SMA)
10:38AM 42.2197 -83.5008 276° West 249 287 4,000  Descending FAA TRACON SMA TRACON (SMA)
10:39AM 42.2176 -83.6478 275° West  Level FlightAware Approximate
10:39AM 42.2217 -83.5392 274° West 247 284 4,100  Level FAA TRACON SMA TRACON (SMA)
10:39AM 42.2236 -83.5675 275° West 247 284 4,200 900 Climbing FAA TRACON SMA TRACON (SMA)
10:39AM 42.2256 -83.5958 275° West 246 283 4,700 1,140 Climbing FAA TRACON SMA TRACON (SMA)
10:40AM 42.2242 -83.7476 275° West  Level FlightAware Approximate
10:40AM 42.2278 -83.6317 275° West 250 288 5,000  Level FAA TRACON SMA TRACON (SMA)
10:40AM 42.2297 -83.6611 275° West 255 293 5,100 720 Climbing FAA TRACON SMA TRACON (SMA)
10:40AM 42.2319 -83.6911 276° West 258 297 5,500 1,380 Climbing FAA TRACON SMA TRACON (SMA)
10:40AM 42.2339 -83.7206 275° West 257 296 6,000 1,620 Climbing FAA TRACON SMA TRACON (SMA)
10:41AM 42.2308 -83.8475 275° West  Level FlightAware Approximate
10:41AM 42.2364 -83.7581 275° West 262 302 6,600  Level FAA TRACON SMA TRACON (SMA)
10:41AM 42.2383 -83.7892 275° West 266 306 6,900 540 Climbing FAA TRACON SMA TRACON (SMA)
10:42AM 42.2411 -83.8272 276° West 264 304 7,000 120 Climbing FAA TRACON SMA TRACON (SMA)
10:42AM 42.2428 -83.8567 274° West 260 299 7,000  Level FAA TRACON SMA TRACON (SMA)
10:42AM 42.2450 -83.8858 276° West 256 295 7,000  Level FAA TRACON SMA TRACON (SMA)
10:43AM 42.2472 -83.9217 275° West 252 290 7,000  Level FAA TRACON SMA TRACON (SMA)
10:43AM 42.2489 -83.9506 274° West 251 289 7,000  Level FAA TRACON SMA TRACON (SMA)
10:43AM 42.2508 -83.9783 275° West 252 290 7,000 120 Level FAA TRACON SMA TRACON (SMA)
10:43AM 42.2533 -84.0144 275° West 252 290 7,100 1,020 Climbing FAA TRACON SMA TRACON (SMA)
10:44AM 42.2553 -84.0442 275° West 256 295 7,700 1,740 Climbing FAA TRACON SMA TRACON (SMA)
10:44AM 42.2572 -84.0747 275° West 261 300 8,300 1,800 Climbing FAA TRACON SMA TRACON (SMA)
10:44AM 42.2594 -84.1058 276° West 267 307 8,900 2,100 Climbing FAA TRACON SMA TRACON (SMA)
10:45AM 42.2617 -84.1450 274° West 270 311 9,700 1,560 Climbing FAA TRACON SMA TRACON (SMA)
10:45AM 42.2639 -84.1761 276° West 272 313 10,000 540 Climbing FAA TRACON SMA TRACON (SMA)
10:46AM 42.2650 -84.2197 272° West 307 353 10,100  Climbing FAA TRACON SMA TRACON (SMA)
10:46AM 42.2639 -84.2561 268° West 321 369 10,000 -180 Descending FAA TRACON SMA TRACON (SMA)
10:46AM 42.2625 -84.2933 267° West 323 372 10,000  Level FAA TRACON SMA TRACON (SMA)
10:46AM 42.2617 -84.3400 269° West 324 373 10,000  Level FAA TRACON SMA TRACON (SMA)
10:47AM 42.2611 -84.3781 269° West 327 376 10,000  Level FAA TRACON SMA TRACON (SMA)
10:47AM 42.2608 -84.4167 269° West 332 382 10,000  Level FAA TRACON SMA TRACON (SMA)
10:47AM 42.2603 -84.4556 269° West 333 383 10,000  Level FAA TRACON SMA TRACON (SMA)
10:48AM 42.2592 -84.5036 268° West 334 384 10,000  Level FAA TRACON SMA TRACON (SMA)
10:48AM 42.2586 -84.5425 269° West 335 386 10,000  Level FAA TRACON SMA TRACON (SMA)
10:49AM 42.2586 -84.5425 360° North 335 386 10,000  Level FAA TRACON SMA TRACON (SMA)
10:49AM 42.2586 -84.5425 360° North 335 386 10,000 -300 Level FAA TRACON SMA TRACON (SMA)
10:50AM 42.2556 -84.6950 269° West 307 353 9,700 -1,260 Descending Chicago Center
10:51AM 42.2539 -84.7883 269° West 259 298 7,800 -1,440 Descending Chicago Center
10:52AM 42.2556 -84.8861 271° West 260 299 6,800 -1,080 Descending Chicago Center
10:53AM 42.2714 -85.0008 281° West 261 300 5,600 -1,080 Descending Chicago Center
10:54AM 42.2831 -85.0939 280° West 255 293 4,600 -780 Descending Chicago Center
10:55AM 42.2958 -85.1828 281° West 247 284 4,000 -300 Descending Chicago Center
10:56AM 42.3081 -85.2731 280° West 245 282 4,000  Level Chicago Center
10:57AM 42.3222 -85.3642 282° West 246 283 4,000 -300 Level Chicago Center
10:58AM 42.3258 -85.4522 273° West 240 276 3,500 -600 Descending Chicago Center
10:59AM 42.3233 -85.5233 267° West 207 238 2,800 -720 Descending Chicago Center